AAL3 KNRB-KLEX
Flight info
| Callsign | AAL3 |
|---|---|
| Flight time | 1h 1m |
| Altitude | 38000 |
| Route | PUPYY ENGRA |
| Aircraft | B77W/H-SDE1E2E3FGHIJ2J3J4J5M1RWXY/LB1D1 |
Departure
| Time | 2026-04-28 00:23 |
|---|---|
| Airport | Naval Station Mayport / Admiral David L McDonald Field (KNRB) |
Arrival
| Time | 2026-04-28 01:24 |
|---|---|
| Airport | Blue Grass Airport (KLEX) |
| Time | Latitude | Longitude | Altitude | Speed | Heading |
|---|---|---|---|---|---|
| 2026-04-27 22:17 | 30.39306 | -81.41754 | 21 ft | 0 kts | 177° |
| 2026-04-28 00:20 | 30.39285 | -81.41753 | 21 ft | 5 kts | 188° |
| 2026-04-28 00:20 | 30.39274 | -81.41771 | 21 ft | 2 kts | 265° |
| 2026-04-28 00:20 | 30.39281 | -81.41789 | 21 ft | 5 kts | 304° |
| 2026-04-28 00:20 | 30.39318 | -81.41863 | 21 ft | 15 kts | 286° |
| 2026-04-28 00:21 | 30.39315 | -81.42017 | 21 ft | 21 kts | 252° |
| 2026-04-28 00:21 | 30.39213 | -81.42152 | 22 ft | 25 kts | 222° |
| 2026-04-28 00:21 | 30.39066 | -81.42306 | 22 ft | 31 kts | 223° |
| 2026-04-28 00:21 | 30.38893 | -81.42493 | 22 ft | 36 kts | 224° |
| 2026-04-28 00:22 | 30.38698 | -81.42706 | 22 ft | 39 kts | 223° |
| 2026-04-28 00:22 | 30.38502 | -81.42918 | 22 ft | 37 kts | 223° |
| 2026-04-28 00:22 | 30.38312 | -81.43118 | 22 ft | 35 kts | 222° |
| 2026-04-28 00:22 | 30.38314 | -81.43271 | 21 ft | 27 kts | 338° |
| 2026-04-28 00:23 | 30.38555 | -81.43083 | 22 ft | 85 kts | 43° |
| 2026-04-28 00:23 | 30.39233 | -81.42355 | 144 ft | 168 kts | 44° |
| 2026-04-28 00:23 | 30.40074 | -81.41400 | 1370 ft | 179 kts | 45° |
| 2026-04-28 00:23 | 30.41166 | -81.40926 | 2945 ft | 185 kts | 355° |
| 2026-04-28 00:24 | 30.42359 | -81.41366 | 4413 ft | 188 kts | 343° |
| 2026-04-28 00:24 | 30.43589 | -81.41922 | 5637 ft | 202 kts | 344° |
| 2026-04-28 00:24 | 30.44953 | -81.42474 | 6861 ft | 218 kts | 343° |
| 2026-04-28 00:24 | 30.46396 | -81.43057 | 8095 ft | 233 kts | 343° |
| 2026-04-28 00:25 | 30.47966 | -81.43690 | 9263 ft | 250 kts | 343° |
| 2026-04-28 00:25 | 30.49649 | -81.44371 | 10505 ft | 263 kts | 343° |
| 2026-04-28 00:25 | 30.51364 | -81.45066 | 12009 ft | 265 kts | 342° |
| 2026-04-28 00:25 | 30.53082 | -81.45763 | 13443 ft | 267 kts | 341° |
| 2026-04-28 00:26 | 30.54814 | -81.46466 | 14788 ft | 271 kts | 341° |
| 2026-04-28 00:26 | 30.56602 | -81.47193 | 16068 ft | 277 kts | 341° |
| 2026-04-28 00:26 | 30.58460 | -81.47948 | 17192 ft | 290 kts | 341° |
| 2026-04-28 00:26 | 30.60413 | -81.48741 | 18205 ft | 306 kts | 341° |
| 2026-04-28 00:27 | 30.62472 | -81.49580 | 19212 ft | 322 kts | 341° |
| 2026-04-28 00:27 | 30.64631 | -81.50459 | 20215 ft | 338 kts | 341° |
| 2026-04-28 00:27 | 30.66925 | -81.51393 | 21224 ft | 354 kts | 340° |
| 2026-04-28 00:27 | 30.69286 | -81.52356 | 22191 ft | 369 kts | 341° |
| 2026-04-28 00:28 | 30.71751 | -81.53361 | 23116 ft | 384 kts | 340° |
| 2026-04-28 00:28 | 30.74332 | -81.54416 | 23955 ft | 400 kts | 340° |
| 2026-04-28 00:28 | 30.77057 | -81.55529 | 24700 ft | 417 kts | 340° |
| 2026-04-28 00:28 | 30.79850 | -81.56671 | 25355 ft | 434 kts | 341° |
| 2026-04-28 00:29 | 30.82772 | -81.57867 | 26067 ft | 448 kts | 341° |
| 2026-04-28 00:29 | 30.85728 | -81.59076 | 26974 ft | 455 kts | 340° |
| 2026-04-28 00:29 | 30.88769 | -81.60321 | 27966 ft | 459 kts | 341° |
| 2026-04-28 00:29 | 30.91823 | -81.61573 | 28846 ft | 465 kts | 341° |
| 2026-04-28 00:30 | 30.94920 | -81.62843 | 29609 ft | 471 kts | 341° |
| 2026-04-28 00:30 | 30.98033 | -81.64120 | 30522 ft | 472 kts | 341° |
| 2026-04-28 00:30 | 31.01120 | -81.65389 | 31570 ft | 469 kts | 340° |
| 2026-04-28 00:30 | 31.04200 | -81.66653 | 32576 ft | 466 kts | 340° |
| 2026-04-28 00:31 | 31.07268 | -81.67916 | 33410 ft | 465 kts | 340° |
| 2026-04-28 00:31 | 31.10334 | -81.69177 | 34190 ft | 465 kts | 340° |
| 2026-04-28 00:31 | 31.13410 | -81.70444 | 35114 ft | 462 kts | 340° |
| 2026-04-28 00:31 | 31.16478 | -81.71708 | 36088 ft | 457 kts | 340° |
| 2026-04-28 00:32 | 31.19481 | -81.72946 | 36969 ft | 453 kts | 340° |
| 2026-04-28 00:32 | 31.22469 | -81.74180 | 37602 ft | 454 kts | 340° |
| 2026-04-28 00:32 | 31.25436 | -81.75404 | 38117 ft | 456 kts | 340° |
| 2026-04-28 00:33 | 31.31613 | -81.77957 | 38178 ft | 476 kts | 340° |
| 2026-04-28 00:33 | 31.37973 | -81.80589 | 38180 ft | 485 kts | 340° |
| 2026-04-28 00:34 | 31.44426 | -81.83174 | 38190 ft | 487 kts | 342° |
| 2026-04-28 00:34 | 31.50936 | -81.85574 | 38194 ft | 488 kts | 342° |
| 2026-04-28 00:35 | 31.57408 | -81.87970 | 38201 ft | 489 kts | 342° |
| 2026-04-28 00:35 | 31.63929 | -81.90395 | 38195 ft | 489 kts | 342° |
| 2026-04-28 00:36 | 31.70459 | -81.92831 | 38185 ft | 489 kts | 342° |
| 2026-04-28 00:36 | 31.76983 | -81.95270 | 38182 ft | 489 kts | 342° |
| 2026-04-28 00:37 | 31.83514 | -81.97718 | 38174 ft | 489 kts | 342° |
| 2026-04-28 00:37 | 31.90005 | -82.00154 | 38175 ft | 489 kts | 342° |
| 2026-04-28 00:38 | 31.96501 | -82.02596 | 38176 ft | 489 kts | 342° |
| 2026-04-28 00:38 | 32.03049 | -82.05062 | 38169 ft | 490 kts | 342° |
| 2026-04-28 00:39 | 32.09562 | -82.07518 | 38191 ft | 490 kts | 342° |
| 2026-04-28 00:39 | 32.16102 | -82.09988 | 38180 ft | 490 kts | 342° |
| 2026-04-28 00:40 | 32.22607 | -82.12449 | 38187 ft | 489 kts | 342° |
| 2026-04-28 00:40 | 32.29148 | -82.14927 | 38188 ft | 489 kts | 341° |
| 2026-04-28 00:41 | 32.35647 | -82.17393 | 38189 ft | 489 kts | 341° |
| 2026-04-28 00:41 | 32.42179 | -82.19875 | 38189 ft | 489 kts | 341° |
| 2026-04-28 00:42 | 32.48672 | -82.22346 | 38184 ft | 490 kts | 341° |
| 2026-04-28 00:42 | 32.55194 | -82.24831 | 38184 ft | 490 kts | 341° |
| 2026-04-28 00:43 | 32.61723 | -82.27324 | 38189 ft | 490 kts | 341° |
| 2026-04-28 00:43 | 32.68257 | -82.29822 | 38182 ft | 490 kts | 341° |
| 2026-04-28 00:44 | 32.74794 | -82.32324 | 38183 ft | 490 kts | 341° |
| 2026-04-28 00:44 | 32.81323 | -82.34828 | 38184 ft | 490 kts | 341° |
| 2026-04-28 00:45 | 32.87871 | -82.37343 | 38183 ft | 490 kts | 341° |
| 2026-04-28 00:45 | 32.94388 | -82.39850 | 38180 ft | 490 kts | 341° |
| 2026-04-28 00:46 | 33.00918 | -82.42366 | 38173 ft | 490 kts | 341° |
| 2026-04-28 00:46 | 33.07457 | -82.44889 | 38168 ft | 490 kts | 341° |
| 2026-04-28 00:47 | 33.13974 | -82.47407 | 38182 ft | 490 kts | 341° |
| 2026-04-28 00:47 | 33.20542 | -82.49950 | 38177 ft | 490 kts | 341° |
| 2026-04-28 00:48 | 33.26360 | -82.52206 | 38173 ft | 491 kts | 341° |
| 2026-04-28 00:48 | 33.32902 | -82.54745 | 38178 ft | 490 kts | 341° |
| 2026-04-28 00:49 | 33.39403 | -82.57274 | 38183 ft | 490 kts | 341° |
| 2026-04-28 00:49 | 33.45911 | -82.59808 | 38204 ft | 490 kts | 341° |
| 2026-04-28 00:50 | 33.52456 | -82.62361 | 38201 ft | 490 kts | 341° |
| 2026-04-28 00:50 | 33.58978 | -82.64909 | 38194 ft | 490 kts | 341° |
| 2026-04-28 00:51 | 33.65541 | -82.67478 | 38184 ft | 491 kts | 340° |
| 2026-04-28 00:51 | 33.72075 | -82.70039 | 38203 ft | 491 kts | 340° |
| 2026-04-28 00:52 | 33.78619 | -82.72608 | 38196 ft | 492 kts | 340° |
| 2026-04-28 00:52 | 33.85134 | -82.75170 | 38189 ft | 492 kts | 340° |
| 2026-04-28 00:53 | 33.91689 | -82.77752 | 38184 ft | 491 kts | 340° |
| 2026-04-28 00:53 | 33.97489 | -82.80040 | 38190 ft | 491 kts | 340° |
| 2026-04-28 00:54 | 34.04060 | -82.82636 | 38183 ft | 492 kts | 340° |
| 2026-04-28 00:54 | 34.10587 | -82.85218 | 38190 ft | 492 kts | 340° |
| 2026-04-28 00:55 | 34.17143 | -82.87817 | 38191 ft | 492 kts | 340° |
| 2026-04-28 00:55 | 34.23696 | -82.90418 | 38186 ft | 493 kts | 340° |
| 2026-04-28 00:56 | 34.30242 | -82.93021 | 38188 ft | 492 kts | 340° |
| 2026-04-28 00:56 | 34.37021 | -82.95721 | 38189 ft | 493 kts | 340° |
| 2026-04-28 00:57 | 34.55221 | -83.02994 | 38185 ft | 495 kts | 340° |
| 2026-04-28 00:57 | 34.74670 | -83.10802 | 38198 ft | 495 kts | 340° |
| 2026-04-28 00:58 | 34.94117 | -83.18649 | 38211 ft | 495 kts | 340° |
| 2026-04-28 00:58 | 35.12747 | -83.26202 | 38233 ft | 496 kts | 340° |
| 2026-04-28 00:59 | 35.31924 | -83.34016 | 38195 ft | 497 kts | 339° |
| 2026-04-28 00:59 | 35.55597 | -83.43716 | 38179 ft | 497 kts | 340° |
| 2026-04-28 01:00 | 35.80775 | -83.54099 | 38117 ft | 498 kts | 340° |
| 2026-04-28 01:00 | 36.06237 | -83.64671 | 38084 ft | 501 kts | 340° |
| 2026-04-28 01:01 | 36.28210 | -83.73851 | 38090 ft | 500 kts | 339° |
| 2026-04-28 01:01 | 36.49145 | -83.82649 | 38059 ft | 500 kts | 339° |
| 2026-04-28 01:02 | 36.55819 | -83.85465 | 37704 ft | 504 kts | 339° |
| 2026-04-28 01:02 | 36.59148 | -83.86871 | 37260 ft | 500 kts | 339° |
| 2026-04-28 01:02 | 36.62445 | -83.88264 | 36734 ft | 495 kts | 339° |
| 2026-04-28 01:02 | 36.65723 | -83.89651 | 36199 ft | 493 kts | 339° |
| 2026-04-28 01:03 | 36.69004 | -83.91040 | 35670 ft | 493 kts | 339° |
| 2026-04-28 01:03 | 36.72256 | -83.92419 | 35153 ft | 493 kts | 339° |
| 2026-04-28 01:03 | 36.75540 | -83.93813 | 34634 ft | 494 kts | 339° |
| 2026-04-28 01:03 | 36.78796 | -83.95196 | 34125 ft | 496 kts | 339° |
| 2026-04-28 01:04 | 36.82119 | -83.96609 | 33617 ft | 498 kts | 339° |
| 2026-04-28 01:04 | 36.85426 | -83.98016 | 33140 ft | 500 kts | 339° |
| 2026-04-28 01:04 | 36.88715 | -83.99416 | 32671 ft | 501 kts | 339° |
| 2026-04-28 01:04 | 36.92017 | -84.00824 | 32160 ft | 501 kts | 339° |
| 2026-04-28 01:05 | 36.95356 | -84.02248 | 31583 ft | 501 kts | 339° |
| 2026-04-28 01:05 | 36.98649 | -84.03655 | 31014 ft | 497 kts | 339° |
| 2026-04-28 01:05 | 37.01913 | -84.05050 | 30442 ft | 492 kts | 339° |
| 2026-04-28 01:05 | 37.05158 | -84.06437 | 29873 ft | 487 kts | 339° |
| 2026-04-28 01:06 | 37.08399 | -84.07825 | 29284 ft | 481 kts | 339° |
| 2026-04-28 01:06 | 37.11550 | -84.09175 | 28623 ft | 477 kts | 339° |
| 2026-04-28 01:06 | 37.14694 | -84.10524 | 27952 ft | 473 kts | 338° |
| 2026-04-28 01:06 | 37.17827 | -84.11868 | 27279 ft | 469 kts | 338° |
| 2026-04-28 01:07 | 37.20897 | -84.13188 | 26612 ft | 465 kts | 338° |
| 2026-04-28 01:07 | 37.23946 | -84.14499 | 25948 ft | 461 kts | 338° |
| 2026-04-28 01:07 | 37.27004 | -84.15816 | 25274 ft | 457 kts | 338° |
| 2026-04-28 01:07 | 37.29986 | -84.17100 | 24609 ft | 452 kts | 338° |
| 2026-04-28 01:08 | 37.32956 | -84.18381 | 23945 ft | 448 kts | 337° |
| 2026-04-28 01:08 | 37.35932 | -84.19665 | 23272 ft | 444 kts | 337° |
| 2026-04-28 01:08 | 37.38845 | -84.20923 | 22623 ft | 439 kts | 337° |
| 2026-04-28 01:08 | 37.41707 | -84.22160 | 21963 ft | 434 kts | 337° |
| 2026-04-28 01:09 | 37.44554 | -84.23390 | 21310 ft | 425 kts | 336° |
| 2026-04-28 01:09 | 37.47313 | -84.24581 | 20629 ft | 411 kts | 337° |
| 2026-04-28 01:09 | 37.50082 | -84.25458 | 19990 ft | 400 kts | 344° |
| 2026-04-28 01:09 | 37.52798 | -84.26079 | 19346 ft | 387 kts | 344° |
| 2026-04-28 01:10 | 37.55419 | -84.26668 | 18663 ft | 375 kts | 344° |
| 2026-04-28 01:10 | 37.57948 | -84.27241 | 17941 ft | 367 kts | 343° |
| 2026-04-28 01:10 | 37.60439 | -84.27808 | 17210 ft | 359 kts | 343° |
| 2026-04-28 01:10 | 37.62899 | -84.28368 | 16466 ft | 353 kts | 344° |
| 2026-04-28 01:11 | 37.65296 | -84.28917 | 15739 ft | 348 kts | 343° |
| 2026-04-28 01:11 | 37.67683 | -84.29464 | 15006 ft | 343 kts | 344° |
| 2026-04-28 01:11 | 37.70020 | -84.30001 | 14289 ft | 340 kts | 344° |
| 2026-04-28 01:11 | 37.72346 | -84.30535 | 13593 ft | 337 kts | 343° |
| 2026-04-28 01:12 | 37.74661 | -84.31067 | 12870 ft | 335 kts | 344° |
| 2026-04-28 01:12 | 37.76948 | -84.31593 | 12117 ft | 333 kts | 344° |
| 2026-04-28 01:12 | 37.79225 | -84.32117 | 11427 ft | 332 kts | 344° |
| 2026-04-28 01:12 | 37.81490 | -84.32638 | 10728 ft | 330 kts | 344° |
| 2026-04-28 01:13 | 37.83768 | -84.33162 | 10004 ft | 328 kts | 345° |
| 2026-04-28 01:13 | 37.88042 | -84.34137 | 9239 ft | 287 kts | 344° |
| 2026-04-28 01:13 | 37.89989 | -84.34588 | 8489 ft | 283 kts | 344° |
| 2026-04-28 01:14 | 37.91911 | -84.35036 | 7658 ft | 281 kts | 345° |
| 2026-04-28 01:14 | 37.93841 | -84.35484 | 7025 ft | 274 kts | 345° |
| 2026-04-28 01:14 | 37.95689 | -84.35908 | 6688 ft | 261 kts | 344° |
| 2026-04-28 01:14 | 37.97444 | -84.36312 | 6399 ft | 248 kts | 344° |
| 2026-04-28 01:15 | 37.99117 | -84.36700 | 6106 ft | 238 kts | 344° |
| 2026-04-28 01:15 | 38.00726 | -84.37072 | 5802 ft | 229 kts | 344° |
| 2026-04-28 01:15 | 38.02258 | -84.37427 | 5496 ft | 220 kts | 344° |
| 2026-04-28 01:15 | 38.03766 | -84.37777 | 5179 ft | 211 kts | 344° |
| 2026-04-28 01:16 | 38.05193 | -84.38107 | 4873 ft | 204 kts | 344° |
| 2026-04-28 01:16 | 38.06586 | -84.38431 | 4564 ft | 200 kts | 344° |
| 2026-04-28 01:16 | 38.07927 | -84.38741 | 4259 ft | 191 kts | 344° |
| 2026-04-28 01:16 | 38.09240 | -84.39048 | 3966 ft | 190 kts | 345° |
| 2026-04-28 01:17 | 38.10565 | -84.39355 | 3661 ft | 192 kts | 345° |
| 2026-04-28 01:17 | 38.11874 | -84.39659 | 3417 ft | 189 kts | 345° |
| 2026-04-28 01:17 | 38.13198 | -84.39965 | 3374 ft | 193 kts | 345° |
| 2026-04-28 01:17 | 38.14555 | -84.40282 | 3341 ft | 202 kts | 345° |
| 2026-04-28 01:18 | 38.15975 | -84.40633 | 3283 ft | 205 kts | 339° |
| 2026-04-28 01:18 | 38.17086 | -84.41494 | 3136 ft | 172 kts | 301° |
| 2026-04-28 01:18 | 38.17597 | -84.42735 | 3009 ft | 150 kts | 270° |
| 2026-04-28 01:18 | 38.17610 | -84.44016 | 2876 ft | 141 kts | 249° |
| 2026-04-28 01:19 | 38.17285 | -84.45142 | 2755 ft | 129 kts | 225° |
| 2026-04-28 01:19 | 38.16677 | -84.45943 | 2698 ft | 123 kts | 214° |
| 2026-04-28 01:19 | 38.16022 | -84.46671 | 2681 ft | 125 kts | 214° |
| 2026-04-28 01:19 | 38.15354 | -84.47420 | 2649 ft | 128 kts | 214° |
| 2026-04-28 01:20 | 38.14679 | -84.48177 | 2621 ft | 129 kts | 214° |
| 2026-04-28 01:20 | 38.13998 | -84.48944 | 2572 ft | 130 kts | 214° |
| 2026-04-28 01:20 | 38.13305 | -84.49717 | 2549 ft | 131 kts | 215° |
| 2026-04-28 01:20 | 38.12621 | -84.50487 | 2524 ft | 131 kts | 215° |
| 2026-04-28 01:21 | 38.11924 | -84.51269 | 2494 ft | 131 kts | 214° |
| 2026-04-28 01:21 | 38.11237 | -84.52036 | 2449 ft | 132 kts | 215° |
| 2026-04-28 01:21 | 38.10546 | -84.52814 | 2419 ft | 132 kts | 214° |
| 2026-04-28 01:21 | 38.09875 | -84.53564 | 2340 ft | 122 kts | 214° |
| 2026-04-28 01:22 | 38.09251 | -84.54263 | 2257 ft | 119 kts | 214° |
| 2026-04-28 01:22 | 38.08605 | -84.54984 | 2122 ft | 128 kts | 215° |
| 2026-04-28 01:22 | 38.07914 | -84.55759 | 1933 ft | 130 kts | 215° |
| 2026-04-28 01:22 | 38.07252 | -84.56502 | 1756 ft | 123 kts | 213° |
| 2026-04-28 01:23 | 38.06608 | -84.57198 | 1540 ft | 121 kts | 212° |
| 2026-04-28 01:23 | 38.05962 | -84.57891 | 1322 ft | 125 kts | 214° |
| 2026-04-28 01:23 | 38.05305 | -84.58677 | 1202 ft | 132 kts | 216° |
| 2026-04-28 01:23 | 38.04609 | -84.59458 | 1181 ft | 126 kts | 217° |
| 2026-04-28 01:24 | 38.03938 | -84.60183 | 977 ft | 124 kts | 227° |
| 2026-04-28 01:24 | 38.03484 | -84.60701 | 964 ft | 68 kts | 223° |
| 2026-04-28 01:24 | 38.03337 | -84.60825 | 959 ft | 12 kts | 161° |
| 2026-04-28 01:24 | 38.03321 | -84.60771 | 959 ft | 4 kts | 65° |
| 2026-04-28 01:25 | 38.03343 | -84.60731 | 961 ft | 8 kts | 51° |
| 2026-04-28 01:25 | 38.03406 | -84.60654 | 963 ft | 13 kts | 40° |
| 2026-04-28 01:25 | 38.03473 | -84.60583 | 966 ft | 13 kts | 41° |
| 2026-04-28 01:25 | 38.03555 | -84.60464 | 969 ft | 17 kts | 53° |
| 2026-04-28 01:26 | 38.03644 | -84.60338 | 972 ft | 8 kts | 41° |
| 2026-04-28 01:26 | 38.03702 | -84.60274 | 974 ft | 16 kts | 41° |
| 2026-04-28 01:26 | 38.03743 | -84.60214 | 975 ft | 5 kts | 105° |
| 2026-04-28 01:26 | 38.03730 | -84.60124 | 976 ft | 13 kts | 80° |
| 2026-04-28 01:27 | 38.03793 | -84.60081 | 977 ft | 6 kts | 16° |
| 2026-04-28 01:27 | 38.03803 | -84.60046 | 977 ft | 3 kts | 115° |
| 2026-04-28 01:27 | 38.03793 | -84.60023 | 977 ft | 0 kts | 121° |